| time (UTC) | temp F | wind direction | speed MPH | gust MPH | rain 1hr in | rain 24hr in | rain mn in | humidity % | barometer mb |
| 20260831114540 | 69 | 245 | 4.0 | 5.0 | 0.00 | 0.00 | 0.00 | 86 | 1011.8 |
| 20260831113039 | 69 | 229 | 2.0 | 6.0 | 0.00 | 0.00 | 0.00 | 86 | 1011.8 |
| 20260831111548 | 69 | 246 | 2.0 | 6.0 | 0.00 | 0.00 | 0.00 | 86 | 1011.8 |
| 20260831110038 | 69 | 252 | 3.0 | 7.0 | 0.00 | 0.00 | 0.00 | 86 | 1011.8 |
| 20260831104540 | 69 | 254 | 4.0 | 6.0 | 0.00 | 0.00 | 0.00 | 86 | 1011.8 |
| 20260831103044 | 69 | 235 | 4.0 | 8.0 | 0.00 | 0.00 | 0.00 | 86 | 1011.8 |
| 20260831101536 | 70 | 261 | 4.0 | 9.0 | 0.00 | 0.00 | 0.00 | 86 | 1011.8 |
| 20260831100037 | 70 | 241 | 6.0 | 8.0 | 0.00 | 0.00 | 0.00 | 86 | 1011.8 |
| 20260831094531 | 70 | 238 | 4.0 | 8.0 | 0.00 | 0.00 | 0.00 | 86 | 1011.8 |
| 20260831093034 | 70 | 225 | 7.0 | 10.0 | 0.00 | 0.00 | 0.00 | 86 | 1011.7 |
| 20260831091529 | 70 | 233 | 6.0 | 10.0 | 0.00 | 0.00 | 0.00 | 87 | 1011.8 |
| 20260831090027 | 71 | 240 | 2.0 | 5.0 | 0.00 | 0.00 | 0.00 | 88 | 1011.6 |
| 20260831084624 | 71 | 207 | 1.0 | 3.0 | 0.00 | 0.00 | 0.00 | 88 | 1011.7 |
| 20260831083025 | 71 | 217 | 0.0 | 3.0 | 0.00 | 0.00 | 0.00 | 88 | 1011.8 |
| 20260831081533 | 71 | 204 | 1.0 | 3.0 | 0.00 | 0.00 | 0.00 | 87 | 1011.8 |
| 20260831080020 | 71 | 244 | 1.0 | 3.0 | 0.00 | 0.00 | 0.00 | 86 | 1011.9 |
| 20260831074622 | 72 | 224 | 1.0 | 2.0 | 0.00 | 0.00 | 0.00 | 85 | 1011.9 |
| 20260831073021 | 71 | 213 | 0.0 | 1.0 | 0.00 | 0.00 | 0.00 | 82 | 1011.8 |
| 20260831071516 | 71 | 303 | 0.0 | 1.0 | 0.00 | 0.00 | 0.00 | 83 | 1011.7 |
| 20260831070021 | 71 | 284 | 0.0 | 1.0 | 0.00 | 0.00 | 0.00 | 84 | 1011.6 |
| 20260831064512 | 71 | 259 | 0.0 | 3.0 | 0.00 | 0.00 | 0.00 | 85 | 1011.6 |
| 20260831063011 | 71 | 240 | 1.0 | 5.0 | 0.00 | 0.00 | 0.00 | 86 | 1011.6 |
| 20260831061512 | 71 | 271 | 2.0 | 4.0 | 0.00 | 0.00 | 0.00 | 87 | 1011.3 |
| 20260831060015 | 71 | 229 | 2.0 | 6.0 | 0.00 | 0.00 | 0.00 | 87 | 1011.5 |
| 20260831054608 | 71 | 239 | 3.0 | 6.0 | 0.00 | 0.00 | 0.00 | 87 | 1011.5 |
| 20260831053007 | 71 | 252 | 4.0 | 7.0 | 0.00 | 0.00 | 0.00 | 87 | 1011.4 |
| 20260831051506 | 72 | 242 | 5.0 | 9.0 | 0.00 | 0.00 | 0.00 | 86 | 1011.4 |
| 20260831050006 | 72 | 242 | 3.0 | 7.0 | 0.00 | 0.00 | 0.00 | 86 | 1011.6 |
| 20260831044504 | 72 | 224 | 5.0 | 9.0 | 0.00 | 0.00 | 0.00 | 85 | 1011.5 |
| 20260831043003 | 72 | 208 | 2.0 | 7.0 | 0.00 | 0.00 | 0.00 | 84 | 1011.3 |
| 20260831041503 | 72 | 219 | 3.0 | 7.0 | 0.00 | 0.00 | 0.00 | 82 | 1011.2 |
| 20260831040006 | 73 | 145 | 4.0 | 8.0 | 0.00 | 0.00 | 0.00 | 81 | 1011.1 |
| 20260831034501 | 73 | 242 | 6.0 | 11.0 | 0.00 | 0.00 | 0.00 | 79 | 1010.8 |
| 20260831033001 | 73 | 254 | 4.0 | 7.0 | 0.00 | 0.00 | 0.00 | 74 | 1010.4 |
| 20260831031601 | 73 | 214 | 4.0 | 8.0 | 0.00 | 0.00 | 0.00 | 71 | 1010.2 |
| 20260831030100 | 73 | 248 | 3.0 | 8.0 | 0.00 | 0.00 | 0.00 | 72 | 1010.1 |
| 20260831024611 | 73 | 236 | 6.0 | 11.0 | 0.00 | 0.00 | 0.00 | 74 | 1010.0 |
| 20260831023058 | 73 | 236 | 9.0 | 14.0 | 0.00 | 0.00 | 0.00 | 75 | 1009.8 |
| 20260831021601 | 73 | 246 | 10.0 | 15.0 | 0.00 | 0.00 | 0.00 | 79 | 1009.8 |
| 20260831020057 | 73 | 260 | 11.0 | 17.0 | 0.00 | 0.00 | 0.00 | 80 | 1009.8 |
| 20260831014555 | 73 | 259 | 11.0 | 20.0 | 0.00 | 0.00 | 0.00 | 82 | 1009.7 |
| 20260831013055 | 73 | 251 | 14.0 | 19.0 | 0.00 | 0.00 | 0.00 | 83 | 1009.7 |
| 20260831011557 | 74 | 226 | 13.0 | 20.0 | 0.00 | 0.00 | 0.00 | 83 | 1009.7 |
| 20260831010127 | 75 | 242 | 11.0 | 19.0 | 0.00 | 0.00 | 0.00 | 81 | 1009.6 |
| 20260831004552 | 75 | 250 | 13.0 | 20.0 | 0.00 | 0.00 | 0.00 | 81 | 1009.7 |
| 20260831003051 | 76 | 270 | 11.0 | 15.0 | 0.00 | 0.00 | 0.00 | 81 | 1009.7 |
| 20260831001603 | 76 | 206 | 8.0 | 15.0 | 0.00 | 0.00 | 0.00 | 77 | 1009.7 |
| 20260831000048 | 76 | 248 | 9.0 | 18.0 | 0.00 | 0.00 | 0.00 | 80 | 1009.6 |
| 20260830234545 | 76 | 224 | 11.0 | 17.0 | 0.00 | 0.00 | 0.00 | 80 | 1009.5 |
| 20260830233043 | 76 | 221 | 11.0 | 17.0 | 0.00 | 0.00 | 0.00 | 81 | 1009.6 |
| 20260830231539 | 76 | 232 | 9.0 | 15.0 | 0.00 | 0.00 | 0.00 | 81 | 1009.8 |
| 20260830230047 | 76 | 257 | 12.0 | 16.0 | 0.00 | 0.00 | 0.00 | 81 | 1009.9 |
| 20260830224545 | 75 | 223 | 12.0 | 18.0 | 0.00 | 0.00 | 0.00 | 82 | 1010.0 |
| 20260830223031 | 76 | 226 | 8.0 | 16.0 | 0.00 | 0.00 | 0.00 | 80 | 1010.2 |
| 20260830221530 | 77 | 231 | 6.0 | 13.0 | 0.00 | 0.00 | 0.00 | 78 | 1010.5 |
| 20260830220028 | 77 | 267 | 9.0 | 16.0 | 0.00 | 0.00 | 0.00 | 79 | 1010.5 |
| 20260830214523 | 77 | 192 | 9.0 | 14.0 | 0.00 | 0.00 | 0.00 | 80 | 1010.7 |
| 20260830213025 | 78 | 257 | 5.0 | 11.0 | 0.00 | 0.00 | 0.00 | 78 | 1011.1 |
| 20260830211525 | 78 | 200 | 3.0 | 9.0 | 0.00 | 0.00 | 0.00 | 79 | 1011.4 |
| 20260830210018 | 78 | 222 | 5.0 | 9.0 | 0.00 | 0.00 | 0.00 | 80 | 1011.5 |
| 20260830204517 | 78 | 232 | 6.0 | 10.0 | 0.00 | 0.00 | 0.00 | 79 | 1011.8 |
| 20260830203017 | 78 | 168 | 7.0 | 13.0 | 0.00 | 0.00 | 0.00 | 79 | 1011.9 |
| 20260830201516 | 78 | 214 | 6.0 | 10.0 | 0.00 | 0.00 | 0.00 | 80 | 1011.8 |
| 20260830200015 | 78 | 204 | 6.0 | 10.0 | 0.00 | 0.00 | 0.00 | 78 | 1011.8 |
| 20260830194514 | 78 | 207 | 5.0 | 10.0 | 0.00 | 0.00 | 0.00 | 79 | 1011.9 |
| 20260830193014 | 78 | 204 | 7.0 | 10.0 | 0.00 | 0.00 | 0.00 | 78 | 1011.9 |
| 20260830191512 | 78 | 175 | 6.0 | 9.0 | 0.00 | 0.00 | 0.00 | 79 | 1012.1 |
| 20260830190016 | 78 | 168 | 6.0 | 9.0 | 0.00 | 0.00 | 0.00 | 79 | 1012.1 |
| 20260830184513 | 78 | 178 | 5.0 | 8.0 | 0.00 | 0.00 | 0.00 | 78 | 1012.3 |
| 20260830183011 | 78 | 153 | 4.0 | 6.0 | 0.00 | 0.00 | 0.00 | 78 | 1012.3 |
| 20260830181507 | 78 | 136 | 4.0 | 5.0 | 0.00 | 0.00 | 0.00 | 77 | 1012.3 |
| 20260830180006 | 78 | 207 | 3.0 | 4.0 | 0.00 | 0.00 | 0.00 | 76 | 1012.2 |
| 20260830174512 | 78 | 169 | 2.0 | 4.0 | 0.00 | 0.00 | 0.00 | 75 | 1012.2 |
| 20260830173004 | 78 | 234 | 1.0 | 3.0 | 0.00 | 0.00 | 0.00 | 75 | 1012.2 |
| 20260830171503 | 79 | 118 | 1.0 | 3.0 | 0.00 | 0.00 | 0.00 | 74 | 1012.1 |
| 20260830170002 | 78 | 92 | 1.0 | 4.0 | 0.00 | 0.00 | 0.00 | 75 | 1012.1 |
| 20260830164606 | 79 | 116 | 0.0 | 3.0 | 0.00 | 0.00 | 0.00 | 73 | 1012.1 |
| 20260830164502 | 79 | 86 | 1.0 | 3.0 | 0.00 | 0.00 | 0.00 | 73 | 1012.1 |
| 20260830163104 | 78 | 93 | 0.0 | 2.0 | 0.00 | 0.00 | 0.00 | 75 | 1012.0 |
| 20260830161631 | 77 | 90 | 1.0 | 3.0 | 0.00 | 0.00 | 0.00 | 76 | 1011.8 |
| 20260830160057 | 77 | 96 | 2.0 | 3.0 | 0.00 | 0.00 | 0.00 | 74 | 1011.9 |
| 20260830154555 | 78 | 91 | 1.0 | 2.0 | 0.00 | 0.00 | 0.00 | 74 | 1011.9 |
| 20260830153053 | 77 | 258 | 0.0 | 2.0 | 0.00 | 0.00 | 0.00 | 75 | 1011.8 |
| 20260830151552 | 76 | 211 | 0.0 | 1.0 | 0.00 | 0.00 | 0.00 | 74 | 1011.8 |
| 20260830150050 | 76 | 186 | 0.0 | 0.0 | 0.00 | 0.00 | 0.00 | 77 | 1011.9 |
| 20260830144543 | 74 | 218 | 0.0 | 0.0 | 0.00 | 0.00 | 0.00 | 82 | 1011.8 |
| 20260830143044 | 73 | 216 | 0.0 | 0.0 | 0.00 | 0.00 | 0.00 | 81 | 1011.7 |
| 20260830141538 | 72 | 269 | 0.0 | 0.0 | 0.00 | 0.00 | 0.00 | 84 | 1011.5 |
| 20260830140036 | 71 | 269 | 0.0 | 0.0 | 0.00 | 0.00 | 0.00 | 84 | 1011.6 |
| 20260830134545 | 71 | 269 | 0.0 | 0.0 | 0.00 | 0.00 | 0.00 | 85 | 1011.4 |
| 20260830133037 | 71 | 269 | 0.0 | 0.0 | 0.00 | 0.00 | 0.00 | 84 | 1011.2 |
| 20260830131531 | 71 | 297 | 0.0 | 0.0 | 0.00 | 0.00 | 0.00 | 82 | 1011.0 |
| 20260830130028 | 71 | 297 | 0.0 | 0.0 | 0.00 | 0.00 | 0.00 | 82 | 1010.9 |
| 20260830124528 | 71 | 296 | 0.0 | 0.0 | 0.00 | 0.00 | 0.00 | 83 | 1010.8 |
| 20260830123026 | 71 | 295 | 0.0 | 0.0 | 0.00 | 0.00 | 0.00 | 84 | 1010.9 |
| 20260830121526 | 71 | 295 | 0.0 | 0.0 | 0.00 | 0.00 | 0.00 | 83 | 1010.8 |
| 20260830120024 | 71 | 296 | 0.0 | 0.0 | 0.00 | 0.00 | 0.00 | 83 | 1010.6 |